Time;durP1;ratioP1;P1;durP2;ratioP2;P2;SDS_P1;SDS_P2;PMS_P1;PMS_P2;Temp;Humidity;BMP_temperature;BMP_pressure;BME280_temperature;BME280_humidity;BME280_pressure;Samples;Min_cycle;Max_cycle;Signal;HPM_P1;HPM_P2
2023/03/02 00:00:01;;;;;;;13.65;6.00;;;;;;;0.29;66.16;102349.16;5011904;28;20447;-82
2023/03/02 00:02:28;;;;;;;15.00;6.18;;;;;;;0.29;66.45;102348.28;5012799;28;20029;-81
2023/03/02 00:04:57;;;;;;;17.42;7.07;;;;;;;0.26;66.17;102356.69;5012857;28;20057;-81
2023/03/02 00:07:31;;;;;;;15.45;6.70;;;;;;;0.25;65.97;102356.56;5011917;28;20398;-82
2023/03/02 00:09:57;;;;;;;15.57;6.65;;;;;;;0.23;66.02;102346.28;5012451;28;20061;-81
2023/03/02 00:12:23;;;;;;;14.65;6.63;;;;;;;0.19;66.16;102344.38;5012750;28;20026;-82
2023/03/02 00:14:48;;;;;;;17.13;6.83;;;;;;;0.23;66.14;102343.75;5011856;28;20109;-81
2023/03/02 00:17:13;;;;;;;15.35;6.32;;;;;;;0.24;66.16;102355.72;5012919;28;20041;-82
2023/03/02 00:19:39;;;;;;;14.98;6.35;;;;;;;0.23;66.26;102346.28;5012720;28;20113;-81
2023/03/02 00:22:05;;;;;;;14.82;6.35;;;;;;;0.20;66.24;102352.91;5014614;28;20389;-82
2023/03/02 00:24:30;;;;;;;15.25;6.00;;;;;;;0.15;66.34;102345.03;5016424;28;20022;-82
2023/03/02 00:26:56;;;;;;;15.93;6.60;;;;;;;0.10;66.47;102326.91;5016039;28;20033;-82
2023/03/02 00:29:21;;;;;;;15.60;6.50;;;;;;;0.23;66.50;102343.75;5015328;28;20026;-82
2023/03/02 00:31:46;;;;;;;14.95;6.00;;;;;;;0.20;65.96;102348.69;5016176;28;20033;-81
2023/03/02 00:34:12;;;;;;;15.73;6.45;;;;;;;0.20;65.74;102342.72;5016028;28;20049;-82
2023/03/02 00:36:37;;;;;;;14.88;6.35;;;;;;;0.15;66.13;102335.69;5015224;28;20025;-82
2023/03/02 00:39:03;;;;;;;15.68;6.32;;;;;;;0.17;65.98;102348.50;5016169;28;20117;-82
2023/03/02 00:41:28;;;;;;;14.03;6.47;;;;;;;0.17;66.27;102353.63;5014967;28;20038;-82
2023/03/02 00:43:54;;;;;;;17.77;6.68;;;;;;;0.18;66.21;102354.50;5015814;28;20021;-82
2023/03/02 00:46:22;;;;;;;15.10;6.60;;;;;;;0.18;66.48;102355.38;5016009;28;20022;-82
2023/03/02 00:48:48;;;;;;;15.82;6.70;;;;;;;0.13;66.36;102350.03;5015199;28;20033;-81
2023/03/02 00:51:14;;;;;;;13.88;6.13;;;;;;;0.17;66.47;102350.19;5016086;28;20026;-82
2023/03/02 00:53:40;;;;;;;15.30;6.75;;;;;;;0.12;66.49;102355.06;5015729;28;20026;-82
2023/03/02 00:56:09;;;;;;;14.90;6.40;;;;;;;0.08;66.86;102340.38;5015362;28;20057;-82
2023/03/02 00:58:35;;;;;;;16.35;6.47;;;;;;;0.06;66.91;102347.06;5015248;28;20285;-82
2023/03/02 01:01:09;;;;;;;15.10;6.75;;;;;;;0.05;66.52;102350.47;5015947;28;20426;-81
2023/03/02 01:03:35;;;;;;;16.67;6.68;;;;;;;0.03;66.92;102342.69;5014758;28;20110;-81
2023/03/02 01:06:04;;;;;;;14.52;6.38;;;;;;;-0.03;67.24;102348.34;5033485;28;20025;-81
2023/03/02 01:08:29;;;;;;;17.60;7.20;;;;;;;-0.08;67.28;102343.81;5034934;28;20026;-81
2023/03/02 01:10:55;;;;;;;15.35;6.97;;;;;;;-0.07;67.31;102343.00;5034922;28;20033;-81
2023/03/02 01:13:20;;;;;;;14.77;6.20;;;;;;;-0.09;67.44;102340.41;5035424;28;20179;-81
2023/03/02 01:15:46;;;;;;;12.68;6.13;;;;;;;-0.14;67.46;102328.19;5035269;28;20531;-81
2023/03/02 01:18:11;;;;;;;14.63;6.38;;;;;;;-0.15;67.93;102337.50;5034746;28;20437;-82
2023/03/02 01:20:37;;;;;;;15.02;6.53;;;;;;;-0.22;68.24;102331.19;5035143;28;20029;-82
2023/03/02 01:23:05;;;;;;;14.77;6.72;;;;;;;-0.26;68.39;102334.41;5035131;28;20071;-82
2023/03/02 01:25:30;;;;;;;16.58;6.75;;;;;;;-0.30;68.55;102326.50;5034373;28;20026;-82
2023/03/02 01:27:57;;;;;;;16.10;6.97;;;;;;;-0.28;68.56;102332.56;5034895;28;20036;-82
2023/03/02 01:30:22;;;;;;;15.77;7.07;;;;;;;-0.31;68.83;102330.72;5035022;28;20029;-82
2023/03/02 01:32:47;;;;;;;15.93;6.75;;;;;;;-0.36;68.93;102330.47;5025789;28;20444;-81
2023/03/02 01:35:13;;;;;;;16.23;7.13;;;;;;;-0.39;69.08;102329.44;5014921;28;20030;-81
2023/03/02 01:37:38;;;;;;;15.75;6.55;;;;;;;-0.36;68.53;102327.91;5014134;28;20470;-81
2023/03/02 01:40:05;;;;;;;14.32;6.20;;;;;;;-0.41;69.41;102323.38;5014817;28;20026;-81
2023/03/02 01:42:39;;;;;;;17.75;7.00;;;;;;;-0.41;69.02;102315.72;5015233;28;20018;-81
2023/03/02 01:45:25;;;;;;;15.15;6.53;;;;;;;-0.43;69.60;102317.28;5014006;28;20026;-81
2023/03/02 01:47:50;;;;;;;16.75;6.95;;;;;;;-0.50;69.74;102308.44;5014725;28;20037;-82
2023/03/02 01:50:22;;;;;;;17.27;7.00;;;;;;;-0.47;70.04;102318.81;5014755;28;20079;-81
2023/03/02 01:52:49;;;;;;;15.23;7.05;;;;;;;-0.51;69.91;102312.66;5013589;28;20470;-82
2023/03/02 01:55:19;;;;;;;14.57;6.47;;;;;;;-0.53;69.95;102311.69;5014863;28;20393;-82
2023/03/02 01:57:48;;;;;;;13.07;5.85;;;;;;;-0.56;69.19;102308.97;5014817;28;20033;-82
2023/03/02 02:00:19;;;;;;;13.57;5.70;;;;;;;-0.63;70.96;102305.25;5016679;28;20099;-81
2023/03/02 02:02:44;;;;;;;15.77;6.50;;;;;;;-0.69;71.28;102307.44;5034260;28;20036;-82
2023/03/02 02:05:16;;;;;;;13.43;5.95;;;;;;;-0.74;70.15;102292.69;5033996;28;20469;-81
2023/03/02 02:07:42;;;;;;;13.90;6.10;;;;;;;-0.75;71.94;102304.56;5033403;28;20037;-81
2023/03/02 02:10:08;;;;;;;11.48;5.18;;;;;;;-0.80;71.60;102298.34;5087831;23;20046;-81
2023/03/02 02:12:34;;;;;;;15.73;6.45;;;;;;;-0.84;71.60;102298.94;5033958;28;20026;-82
2023/03/02 02:15:00;;;;;;;12.32;5.88;;;;;;;-0.88;70.56;102305.56;5033660;28;20032;-81
2023/03/02 02:17:28;;;;;;;11.63;4.95;;;;;;;-0.88;70.76;102307.22;5033801;28;20048;-82
2023/03/02 02:19:59;;;;;;;10.45;4.80;;;;;;;-0.91;71.38;102307.94;5033520;28;20109;-81
2023/03/02 02:22:39;;;;;;;8.40;4.43;;;;;;;-0.95;71.47;102300.91;5033840;28;20104;-82
2023/03/02 02:25:15;;;;;;;10.43;4.50;;;;;;;-1.01;72.87;102300.56;5034012;28;20029;-81
2023/03/02 02:27:41;;;;;;;12.63;5.38;;;;;;;-1.04;73.07;102298.72;5032916;28;20033;-81
2023/03/02 02:30:10;;;;;;;10.75;4.80;;;;;;;-1.04;71.82;102298.72;5033953;28;20052;-82
2023/03/02 02:32:39;;;;;;;13.05;5.65;;;;;;;-1.15;74.08;102284.50;5033679;28;20029;-82
2023/03/02 02:35:12;;;;;;;12.80;5.60;;;;;;;-1.09;73.91;102300.16;5033041;28;20029;-82
2023/03/02 02:37:45;;;;;;;17.17;7.20;;;;;;;-1.19;75.76;102288.56;5033168;28;20021;-82
2023/03/02 02:40:16;;;;;;;16.70;7.47;;;;;;;-1.21;77.03;102289.28;5033593;28;20021;-81
2023/03/02 02:42:44;;;;;;;17.90;7.40;;;;;;;-1.22;76.37;102290.94;5032534;28;20056;-81
2023/03/02 02:45:24;;;;;;;20.63;9.10;;;;;;;-1.36;79.70;102290.16;5032941;28;20022;-82
2023/03/02 02:47:51;;;;;;;20.85;9.88;;;;;;;-1.32;80.28;102281.00;5033786;28;20025;-82
2023/03/02 02:50:24;;;;;;;23.95;11.02;;;;;;;-1.31;80.07;102275.13;5032870;28;20029;-82
2023/03/02 02:53:06;;;;;;;24.80;11.45;;;;;;;-1.36;80.81;102282.50;5033607;28;20087;-81
2023/03/02 02:55:34;;;;;;;24.15;11.60;;;;;;;-1.42;83.32;102274.53;5031832;28;20033;-81
2023/03/02 02:58:08;;;;;;;26.13;12.88;;;;;;;-1.37;82.30;102282.44;5014097;28;20367;-82
2023/03/02 03:00:35;;;;;;;24.85;12.80;;;;;;;-1.37;84.30;102283.31;5013595;28;20028;-82
2023/03/02 03:03:29;;;;;;;27.42;13.10;;;;;;;-1.39;86.04;102279.78;5012954;28;20398;-82
2023/03/02 03:05:59;;;;;;;30.17;15.02;;;;;;;-1.40;87.21;102281.47;5013485;28;20386;-82
2023/03/02 03:08:42;;;;;;;31.55;16.05;;;;;;;-1.35;86.92;102291.06;5013246;28;20079;-81
2023/03/02 03:11:10;;;;;;;28.08;14.10;;;;;;;-1.33;86.17;102282.69;5012590;28;20068;-81
2023/03/02 03:13:37;;;;;;;33.20;16.70;;;;;;;-1.35;88.82;102286.81;5012974;28;20393;-81
2023/03/02 03:16:02;;;;;;;;;;;;;;;-1.33;88.93;102277.59;5013354;28;20032;-81
2023/03/02 03:18:30;;;;;;;30.97;16.73;;;;;;;-1.38;89.52;102267.94;5012733;28;19913;-82
2023/03/02 03:20:56;;;;;;;33.00;17.83;;;;;;;-1.35;89.81;102278.31;5005466;28;20053;-81
2023/03/02 03:23:21;;;;;;;34.95;19.20;;;;;;;-1.36;90.05;102268.91;5012664;28;20423;-82
2023/03/02 03:25:47;;;;;;;36.13;19.40;;;;;;;-1.37;91.37;102264.59;5012915;28;20034;-82
2023/03/02 03:28:12;;;;;;;37.15;19.38;;;;;;;-1.32;91.55;102271.72;5012947;28;20038;-82
2023/03/02 03:30:37;;;;;;;36.58;19.42;;;;;;;-1.30;92.01;102267.59;5012337;28;20065;-81
2023/03/02 03:33:03;;;;;;;37.05;20.27;;;;;;;-1.31;92.31;102272.59;5013371;28;20014;-81
2023/03/02 03:35:28;;;;;;;37.53;19.95;;;;;;;-1.29;92.08;102266.78;5012798;28;20390;-81
2023/03/02 03:37:53;;;;;;;38.88;20.90;;;;;;;-1.27;92.54;102261.78;5012474;28;20025;-81
2023/03/02 03:40:19;;;;;;;39.60;21.30;;;;;;;-1.25;93.04;102267.84;5013148;28;20108;-81
2023/03/02 03:42:44;;;;;;;42.15;21.60;;;;;;;-1.26;93.42;102274.59;5013013;28;20069;-81
2023/03/02 03:45:10;;;;;;;39.75;20.42;;;;;;;-1.28;93.34;102249.84;5012520;28;20048;-81
2023/03/02 03:47:35;;;;;;;39.88;21.83;;;;;;;-1.23;93.81;102263.69;5012905;28;20489;-81
2023/03/02 03:50:01;;;;;;;36.65;20.35;;;;;;;-1.23;92.70;102267.94;5013101;28;20168;-81
2023/03/02 03:52:30;;;;;;;39.03;21.35;;;;;;;-1.29;93.95;102260.81;5012143;28;20030;-82
2023/03/02 03:54:58;;;;;;;41.22;21.58;;;;;;;-1.28;94.07;102270.22;5013460;28;20080;-82
2023/03/02 03:57:24;;;;;;;38.75;20.80;;;;;;;-1.28;92.78;102270.22;5016284;28;20588;-81
2023/03/02 03:59:49;;;;;;;36.65;19.75;;;;;;;-1.27;93.34;102269.44;5016300;28;20030;-81
2023/03/02 04:02:14;;;;;;;41.97;21.35;;;;;;;-1.26;93.76;102271.19;5017322;28;20033;-81
2023/03/02 04:04:40;;;;;;;41.85;22.15;;;;;;;-1.23;94.06;102278.13;5016932;28;20080;-81
2023/03/02 04:07:05;;;;;;;40.70;22.00;;;;;;;-1.21;94.31;102279.09;5016143;28;20092;-81
2023/03/02 04:09:32;;;;;;;40.75;21.42;;;;;;;-1.25;93.51;102265.31;5016326;28;20105;-81
2023/03/02 04:11:58;;;;;;;41.13;22.30;;;;;;;-1.32;94.25;102256.44;5016673;28;20022;-81
2023/03/02 04:14:24;;;;;;;41.33;20.83;;;;;;;-1.23;94.17;102270.47;5016114;28;20025;-81
2023/03/02 04:16:50;;;;;;;40.72;21.73;;;;;;;-1.26;93.98;102272.06;5016895;28;20030;-82
2023/03/02 04:19:16;;;;;;;42.15;21.35;;;;;;;-1.34;94.02;102259.66;5016400;28;20523;-82
2023/03/02 04:21:49;;;;;;;40.40;22.13;;;;;;;-1.31;94.45;102272.59;5015566;28;20239;-82
2023/03/02 04:24:17;;;;;;;41.85;21.40;;;;;;;-1.31;94.03;102263.28;5016441;28;20508;-81
2023/03/02 04:26:44;;;;;;;37.97;20.13;;;;;;;-1.34;93.88;102270.75;5015346;28;20057;-81
2023/03/02 04:29:12;;;;;;;40.53;21.95;;;;;;;-1.31;94.10;102280.22;5016619;28;20026;-81
2023/03/02 04:31:38;;;;;;;39.33;20.05;;;;;;;-1.31;93.66;102278.56;5016239;28;20028;-81
2023/03/02 04:34:05;;;;;;;39.50;21.10;;;;;;;-1.35;93.64;102278.31;5015738;28;20026;-81
2023/03/02 04:36:32;;;;;;;36.83;19.05;;;;;;;-1.31;93.16;102281.13;5016065;28;20044;-81
2023/03/02 04:38:58;;;;;;;40.35;20.45;;;;;;;-1.33;92.97;102282.69;5016170;28;20056;-81
2023/03/02 04:41:26;;;;;;;39.78;20.67;;;;;;;-1.31;92.91;102282.78;5015625;28;20045;-82
2023/03/02 04:43:51;;;;;;;36.60;19.50;;;;;;;-1.34;92.49;102272.41;5016317;28;20068;-81
2023/03/02 04:46:24;;;;;;;36.25;18.60;;;;;;;-1.36;92.49;102269.78;5016094;28;20018;-81
2023/03/02 04:48:50;;;;;;;36.33;18.65;;;;;;;-1.40;92.49;102266.19;5015207;28;20068;-81
2023/03/02 04:51:22;;;;;;;36.88;19.00;;;;;;;-1.39;92.74;102277.22;5016186;28;20080;-81
2023/03/02 04:53:53;;;;;;;36.20;18.95;;;;;;;-1.36;91.94;102271.47;5015878;28;20109;-81
2023/03/02 04:56:18;;;;;;;38.22;20.15;;;;;;;-1.42;92.85;102267.75;5015265;28;20068;-82
2023/03/02 04:58:44;;;;;;;36.88;19.30;;;;;;;-1.41;92.80;102268.66;5015691;28;20030;-81
2023/03/02 05:01:13;;;;;;;35.78;19.05;;;;;;;-1.38;92.03;102270.50;5016066;28;20109;-81
2023/03/02 05:03:39;;;;;;;33.80;16.85;;;;;;;-1.43;92.50;102268.53;5014929;28;20058;-82
2023/03/02 05:06:05;;;;;;;33.17;16.55;;;;;;;-1.47;91.51;102268.28;5015574;28;20053;-82
2023/03/02 05:08:30;;;;;;;31.02;15.02;;;;;;;-1.49;91.79;102270.75;5014961;28;20053;-81
2023/03/02 05:10:57;;;;;;;37.13;19.17;;;;;;;-1.52;93.29;102274.81;5014429;28;20041;-82
2023/03/02 05:13:23;;;;;;;34.55;17.55;;;;;;;-1.53;92.60;102283.22;5015614;28;20062;-82
2023/03/02 05:15:50;;;;;;;30.75;14.57;;;;;;;-1.54;91.03;102282.34;5016287;28;20474;-81
2023/03/02 05:18:15;;;;;;;;;;;;;;;-1.54;91.24;102289.09;5035750;28;20036;-82
2023/03/02 05:20:41;;;;;;;29.17;13.80;;;;;;;-1.58;91.05;102286.38;5035043;28;19913;-82
2023/03/02 05:23:09;;;;;;;27.95;12.77;;;;;;;-1.59;90.86;102286.31;5034684;28;20026;-82
2023/03/02 05:25:43;;;;;;;33.45;15.68;;;;;;;-1.74;93.32;102269.34;5035462;28;20385;-81
2023/03/02 05:28:21;;;;;;;33.50;16.27;;;;;;;-1.72;92.85;102269.41;5035078;28;20485;-82
2023/03/02 05:30:47;;;;;;;33.55;17.00;;;;;;;-1.73;93.91;102283.81;5032474;28;20112;-81
2023/03/02 05:33:13;;;;;;;35.20;16.67;;;;;;;-1.74;93.48;102276.97;5035024;28;20030;-82
2023/03/02 05:35:39;;;;;;;30.77;15.17;;;;;;;-1.75;92.57;102275.22;5035104;28;20276;-82
2023/03/02 05:38:04;;;;;;;33.08;15.77;;;;;;;-1.72;93.91;102283.03;5034431;28;20024;-81
2023/03/02 05:40:30;;;;;;;30.88;14.40;;;;;;;-1.74;93.05;102279.53;5034129;28;20029;-81
2023/03/02 05:42:55;;;;;;;32.55;15.70;;;;;;;-1.76;94.64;102282.78;5015036;28;20026;-81
2023/03/02 05:45:30;;;;;;;36.30;16.92;;;;;;;-1.77;95.30;102281.00;5028258;28;20034;-81
2023/03/02 05:47:56;;;;;;;34.55;16.42;;;;;;;-1.81;94.18;102279.97;5034592;28;20029;-81
2023/03/02 05:50:21;;;;;;;37.05;17.45;;;;;;;-1.83;94.15;102273.00;5034531;28;20066;-81
2023/03/02 05:52:47;;;;;;;36.78;18.15;;;;;;;-1.86;96.15;102274.56;5033662;28;20014;-81
2023/03/02 05:55:14;;;;;;;41.03;20.10;;;;;;;-1.89;96.32;102270.97;5034492;28;20105;-81
2023/03/02 05:57:40;;;;;;;40.25;20.85;;;;;;;-1.84;97.34;102284.88;5034280;28;20029;-81
2023/03/02 06:00:08;;;;;;;41.92;20.88;;;;;;;-1.84;96.51;102279.78;5022861;28;20378;-81
2023/03/02 06:02:34;;;;;;;38.47;19.20;;;;;;;-1.85;95.31;102278.00;5014341;28;20466;-80
2023/03/02 06:05:00;;;;;;;34.78;16.25;;;;;;;-1.87;94.87;102271.94;5014041;28;20033;-80
2023/03/02 06:07:26;;;;;;;47.20;22.92;;;;;;;-1.93;97.62;102275.00;5014960;28;20026;-80
2023/03/02 06:09:51;;;;;;;44.87;22.37;;;;;;;-1.95;98.13;102268.94;5014408;28;20066;-81
2023/03/02 06:12:17;;;;;;;43.60;21.15;;;;;;;-1.92;97.57;102269.13;5013281;28;20101;-80
2023/03/02 06:14:43;;;;;;;45.58;23.10;;;;;;;-1.92;98.59;102274.22;5012639;28;20036;-81
2023/03/02 06:17:09;;;;;;;46.92;23.35;;;;;;;-1.92;98.30;102279.31;5014634;28;20382;-81
2023/03/02 06:19:34;;;;;;;46.83;22.70;;;;;;;-1.97;98.69;102265.44;5012592;28;20029;-80
2023/03/02 06:21:59;;;;;;;48.05;22.83;;;;;;;-1.99;99.53;102274.66;5014357;28;20056;-80
2023/03/02 06:24:25;;;;;;;46.13;22.58;;;;;;;-1.98;99.17;102275.53;5014907;28;20425;-81
2023/03/02 06:26:53;;;;;;;48.05;23.60;;;;;;;-2.03;98.75;102273.56;5013447;28;20036;-81
2023/03/02 06:29:19;;;;;;;47.30;23.30;;;;;;;-1.97;99.21;102279.84;5013988;28;20049;-81
2023/03/02 06:31:44;;;;;;;43.53;21.20;;;;;;;-1.99;98.83;102279.75;5014021;28;20529;-81
2023/03/02 06:34:09;;;;;;;49.45;22.85;;;;;;;-1.99;99.13;102282.28;5013574;28;20424;-83
2023/03/02 06:36:37;;;;;;;49.17;23.67;;;;;;;-2.00;99.46;102274.56;5014012;28;20438;-82
2023/03/02 06:39:07;;;;;;;46.75;23.13;;;;;;;-1.95;99.33;102290.97;5014077;28;20025;-84
2023/03/02 06:41:32;;;;;;;48.53;23.83;;;;;;;-1.99;99.89;102292.47;5013764;28;20521;-86
2023/03/02 06:44:01;;;;;;;48.78;23.13;;;;;;;-1.98;99.62;102284.06;5014275;28;20025;-83
2023/03/02 06:46:26;;;;;;;49.65;23.77;;;;;;;-1.95;98.81;102288.44;5013502;28;20037;-83
2023/03/02 06:48:51;;;;;;;47.70;23.60;;;;;;;-1.93;98.97;102294.50;5013356;28;20037;-82
2023/03/02 06:51:17;;;;;;;49.40;23.35;;;;;;;-1.92;98.96;102291.19;5013973;28;20021;-81
2023/03/02 06:53:42;;;;;;;45.97;22.45;;;;;;;-1.83;98.63;102301.00;5013746;28;20037;-82
2023/03/02 06:56:08;;;;;;;48.70;23.33;;;;;;;-1.74;97.87;102293.91;5012768;28;20492;-82
2023/03/02 06:58:34;;;;;;;43.23;20.67;;;;;;;-1.69;97.08;102302.69;5013422;28;20025;-82
2023/03/02 07:00:59;;;;;;;45.25;20.77;;;;;;;-1.60;96.80;102302.38;5014016;28;20030;-82
2023/03/02 07:03:24;;;;;;;46.53;22.38;;;;;;;-1.58;96.46;102300.78;5012854;28;20036;-81
2023/03/02 07:05:51;;;;;;;49.03;23.65;;;;;;;-1.25;95.64;102312.03;5013392;28;20022;-82
2023/03/02 07:08:16;;;;;;;45.53;23.47;;;;;;;-0.84;94.11;102304.94;5013868;28;20025;-81
2023/03/02 07:10:41;;;;;;;40.58;20.48;;;;;;;-0.64;93.87;102307.69;5012737;28;20414;-81
2023/03/02 07:13:07;;;;;;;45.90;22.00;;;;;;;-0.69;91.74;102312.53;5013260;28;20030;-81
2023/03/02 07:15:32;;;;;;;43.75;21.23;;;;;;;-0.84;92.07;102304.94;5012684;28;20026;-81
2023/03/02 07:17:57;;;;;;;43.03;21.30;;;;;;;-1.08;92.46;102289.19;5013555;28;20033;-81
2023/03/02 07:20:23;;;;;;;41.97;20.50;;;;;;;-1.01;92.28;102313.31;5013074;28;20080;-82
2023/03/02 07:22:48;;;;;;;37.88;18.00;;;;;;;-1.06;92.31;102304.53;5012338;28;20417;-82
2023/03/02 07:25:13;;;;;;;39.22;18.17;;;;;;;-1.02;92.50;102315.00;5029787;28;20033;-82
2023/03/02 07:27:39;;;;;;;41.25;20.52;;;;;;;-1.07;92.52;102320.63;5032340;28;20043;-83
2023/03/02 07:30:06;;;;;;;36.78;17.90;;;;;;;-1.06;92.81;102318.16;5031303;28;20496;-81
2023/03/02 07:32:32;;;;;;;37.42;18.20;;;;;;;-1.08;92.85;102312.09;5032491;28;20037;-81
2023/03/02 07:34:57;;;;;;;41.83;20.15;;;;;;;-1.15;93.72;102318.53;5032930;28;20094;-81
2023/03/02 07:37:22;;;;;;;42.20;20.55;;;;;;;-1.13;93.34;102305.88;5030244;28;20029;-81
2023/03/02 07:39:48;;;;;;;45.65;22.20;;;;;;;-1.19;94.07;102314.03;5032543;28;20032;-81
2023/03/02 07:42:14;;;;;;;43.47;20.90;;;;;;;-1.15;93.98;102310.00;5032611;28;20032;-81
2023/03/02 07:44:40;;;;;;;43.58;21.17;;;;;;;-1.13;93.67;102301.66;5031768;28;20541;-81
2023/03/02 07:47:07;;;;;;;41.80;20.45;;;;;;;-1.11;93.84;102312.78;5032822;28;20112;-81
2023/03/02 07:49:34;;;;;;;46.13;22.40;;;;;;;-1.11;93.47;102314.47;5032708;28;20028;-81
2023/03/02 07:51:59;;;;;;;45.70;22.25;;;;;;;-1.11;93.11;102306.84;5031995;28;20074;-81
2023/03/02 07:54:26;;;;;;;43.50;21.70;;;;;;;-1.15;93.16;102297.25;5032323;28;20026;-82
2023/03/02 07:56:52;;;;;;;44.35;22.13;;;;;;;-1.11;92.31;102300.06;5032600;28;20234;-81
2023/03/02 07:59:17;;;;;;;47.28;23.65;;;;;;;-1.07;91.96;102298.59;5032071;28;20029;-81
2023/03/02 08:01:42;;;;;;;46.70;22.75;;;;;;;-0.92;91.44;102316.38;5032532;28;20104;-81
2023/03/02 08:04:08;;;;;;;47.67;23.02;;;;;;;-0.87;91.00;102324.28;5032277;28;20373;-81
2023/03/02 08:06:33;;;;;;;46.10;22.35;;;;;;;-0.81;90.36;102319.50;5031291;28;20029;-82
2023/03/02 08:09:01;;;;;;;44.85;22.33;;;;;;;-0.76;90.25;102325.75;5032374;28;20531;-81
2023/03/02 08:11:26;;;;;;;43.63;21.50;;;;;;;-0.70;89.88;102313.34;5031726;28;20612;-81
2023/03/02 08:13:51;;;;;;;44.75;21.77;;;;;;;-0.64;88.85;102315.34;5032332;28;20038;-81
2023/03/02 08:16:17;;;;;;;43.50;21.50;;;;;;;-0.59;88.76;102313.03;5032383;28;20080;-81
2023/03/02 08:18:42;;;;;;;42.72;21.92;;;;;;;-0.52;88.64;102318.56;5031055;28;20549;-81
2023/03/02 08:21:17;;;;;;;46.92;22.63;;;;;;;-0.47;87.57;102311.16;5031711;28;20021;-81
2023/03/02 08:23:43;;;;;;;44.20;21.67;;;;;;;-0.43;87.60;102310.53;5012003;28;20053;-81
2023/03/02 08:26:08;;;;;;;43.50;21.10;;;;;;;-0.40;86.99;102309.81;5011728;28;20509;-81
2023/03/02 08:28:34;;;;;;;42.00;20.65;;;;;;;-0.32;86.74;102311.97;5012473;28;20034;-81
2023/03/02 08:31:02;;;;;;;40.92;20.30;;;;;;;-0.22;86.68;102313.31;5012656;28;20065;-81
2023/03/02 08:33:28;;;;;;;38.08;21.00;;;;;;;-0.18;86.07;102311.84;5011321;28;20053;-81
2023/03/02 08:35:58;;;;;;;40.45;20.38;;;;;;;-0.05;84.90;102316.75;5012597;28;20111;-81
2023/03/02 08:38:24;;;;;;;40.15;19.08;;;;;;;0.06;83.05;102324.09;5012325;28;20030;-81
2023/03/02 08:40:51;;;;;;;38.50;19.33;;;;;;;0.15;83.15;102314.38;5011873;28;20386;-81
2023/03/02 08:43:18;;;;;;;39.00;19.27;;;;;;;0.26;82.56;102320.91;5015224;28;20084;-81
2023/03/02 08:45:44;;;;;;;;;;;;;;;0.35;80.73;102323.03;5016050;28;20068;-81
2023/03/02 08:48:09;;;;;;;34.63;17.07;;;;;;;0.40;80.65;102306.28;5015401;28;19957;-81
2023/03/02 08:50:34;;;;;;;34.13;17.45;;;;;;;0.50;80.14;102311.84;5027164;28;20096;-81
2023/03/02 08:52:59;;;;;;;33.92;17.15;;;;;;;0.67;79.26;102317.78;5035813;28;20515;-81
2023/03/02 08:55:25;;;;;;;34.03;16.95;;;;;;;0.76;79.53;102308.91;5034503;28;20017;-81
2023/03/02 08:57:50;;;;;;;35.33;16.35;;;;;;;0.91;78.02;102323.22;5035685;28;20461;-81
2023/03/02 09:00:16;;;;;;;34.63;17.48;;;;;;;0.99;77.04;102314.25;5035620;28;20030;-82
2023/03/02 09:02:41;;;;;;;32.17;16.13;;;;;;;1.08;76.08;102303.56;5034394;28;20017;-81
2023/03/02 09:05:07;;;;;;;32.15;16.27;;;;;;;1.16;74.90;102309.06;5035530;28;20030;-81
2023/03/02 09:07:33;;;;;;;32.95;16.38;;;;;;;1.28;75.21;102295.97;5035263;28;20029;-81
2023/03/02 09:09:58;;;;;;;32.05;15.40;;;;;;;1.35;73.50;102301.41;5034356;28;20507;-81
2023/03/02 09:12:23;;;;;;;32.05;16.05;;;;;;;1.40;72.98;102304.22;5035530;28;20382;-82
2023/03/02 09:14:49;;;;;;;31.92;15.68;;;;;;;1.51;73.57;102303.03;5034510;28;20064;-81
2023/03/02 09:17:14;;;;;;;31.35;15.25;;;;;;;1.62;74.06;102294.97;5035445;28;20067;-81
2023/03/02 09:19:40;;;;;;;32.15;15.98;;;;;;;1.77;71.96;102305.00;5031005;28;20037;-81
2023/03/02 09:22:09;;;;;;;31.40;15.73;;;;;;;1.70;71.54;102294.47;5015979;28;20501;-81
2023/03/02 09:24:35;;;;;;;33.30;16.50;;;;;;;1.87;71.40;102301.16;5016220;28;20068;-82
2023/03/02 09:27:00;;;;;;;31.38;15.70;;;;;;;2.00;71.09;102306.91;5016743;28;20089;-81
2023/03/02 09:29:26;;;;;;;31.50;15.55;;;;;;;2.07;70.90;102302.91;5014686;28;20022;-81
2023/03/02 09:31:52;;;;;;;30.30;15.15;;;;;;;2.18;69.95;102310.19;5015458;28;20458;-81
2023/03/02 09:34:17;;;;;;;33.78;15.98;;;;;;;2.22;69.89;102291.56;5015271;28;20025;-81
2023/03/02 09:36:42;;;;;;;31.08;15.70;;;;;;;2.32;70.31;102291.13;5014049;28;20026;-81
2023/03/02 09:39:11;;;;;;;29.17;14.57;;;;;;;2.47;69.51;102296.03;5015077;28;20116;-82
2023/03/02 09:41:57;;;;;;;30.42;15.40;;;;;;;2.56;68.11;102283.59;5014887;28;20021;-82
2023/03/02 09:44:41;;;;;;;28.42;14.43;;;;;;;2.76;67.41;102294.66;5014118;28;20034;-82
2023/03/02 09:47:14;;;;;;;29.08;14.57;;;;;;;2.91;68.44;102290.94;5014948;28;20034;-82
2023/03/02 09:49:58;;;;;;;28.45;14.80;;;;;;;3.03;65.65;102286.31;5014641;28;20060;-83
2023/03/02 09:52:49;;;;;;;29.02;14.30;;;;;;;2.98;64.60;102287.84;5030796;28;20033;-81
2023/03/02 09:55:23;;;;;;;29.27;14.65;;;;;;;3.03;65.51;102278.63;5014748;28;20488;-82
2023/03/02 09:57:49;;;;;;;29.30;14.45;;;;;;;3.05;63.64;102274.44;5013531;28;20061;-81
2023/03/02 10:00:35;;;;;;;27.52;13.70;;;;;;;3.17;63.67;102279.13;5034589;28;20029;-81
2023/03/02 10:03:13;;;;;;;30.10;14.45;;;;;;;3.27;64.36;102276.91;5034577;28;20025;-81
2023/03/02 10:05:47;;;;;;;28.50;14.57;;;;;;;3.41;63.34;102275.75;5033256;28;20103;-82
2023/03/02 10:08:17;;;;;;;27.65;13.55;;;;;;;3.58;63.56;102281.50;5033957;28;20030;-82
2023/03/02 10:10:56;;;;;;;27.83;13.77;;;;;;;3.71;61.20;102277.72;5033850;28;20049;-81
2023/03/02 10:13:41;;;;;;;27.17;13.85;;;;;;;3.70;60.88;102278.53;5033453;28;20106;-82
2023/03/02 10:16:14;;;;;;;26.35;13.10;;;;;;;3.85;60.52;102281.63;5033852;28;20469;-81
2023/03/02 10:18:48;;;;;;;26.67;13.23;;;;;;;4.05;60.25;102278.03;5032845;28;20032;-81
2023/03/02 10:21:31;;;;;;;24.52;12.45;;;;;;;4.26;57.78;102283.03;5034312;28;20086;-82
2023/03/02 10:23:57;;;;;;;23.92;11.55;;;;;;;4.42;58.05;102282.72;5033812;28;20030;-82
2023/03/02 10:26:36;;;;;;;22.23;11.05;;;;;;;4.63;55.87;102272.28;5033221;28;20028;-82
2023/03/02 10:29:13;;;;;;;23.45;11.20;;;;;;;4.84;58.76;102258.34;5034069;28;20061;-82
2023/03/02 10:31:40;;;;;;;25.33;12.23;;;;;;;4.66;53.15;102281.78;5033775;28;20037;-83
2023/03/02 10:34:09;;;;;;;24.42;12.10;;;;;;;4.67;54.78;102274.97;5033052;28;20038;-82
2023/03/02 10:36:39;;;;;;;24.30;11.48;;;;;;;4.68;53.76;102275.00;5033176;28;20052;-81
2023/03/02 10:39:15;;;;;;;23.70;11.23;;;;;;;4.74;52.34;102277.75;5033685;28;20449;-82
2023/03/02 10:41:52;;;;;;;24.30;11.68;;;;;;;4.87;54.64;102278.13;5033285;28;20041;-81
2023/03/02 10:44:26;;;;;;;26.17;12.50;;;;;;;4.90;54.78;102263.66;5033732;28;20396;-82
2023/03/02 10:46:52;;;;;;;24.05;12.10;;;;;;;5.05;55.80;102262.41;5032445;28;20187;-83
2023/03/02 10:49:32;;;;;;;23.77;11.38;;;;;;;5.20;54.45;102264.56;5033207;28;20025;-82
2023/03/02 10:52:03;;;;;;;24.73;12.00;;;;;;;5.23;55.01;102260.41;5033486;28;20041;-82
2023/03/02 10:54:31;;;;;;;25.65;11.95;;;;;;;5.26;54.61;102259.59;5032516;28;20025;-81
2023/03/02 10:57:00;;;;;;;25.77;12.70;;;;;;;4.90;54.97;102253.38;5033598;28;20035;-82
2023/03/02 10:59:45;;;;;;;25.15;12.52;;;;;;;4.82;55.39;102261.69;5033104;28;20029;-81
2023/03/02 11:02:28;;;;;;;26.35;12.73;;;;;;;4.92;54.79;102256.88;5032529;28;20041;-84
2023/03/02 11:04:56;;;;;;;24.75;12.40;;;;;;;5.03;54.37;102258.91;5032894;28;20032;-83
2023/03/02 11:07:24;;;;;;;25.70;12.73;;;;;;;5.02;54.97;102249.44;5031982;28;20026;-82
2023/03/02 11:10:00;;;;;;;24.30;11.95;;;;;;;5.18;55.88;102253.38;5033118;28;20047;-82
2023/03/02 11:12:26;;;;;;;25.70;12.85;;;;;;;5.13;53.67;102253.19;5033036;28;20021;-83
2023/03/02 11:15:27;;;;;;;24.90;12.45;;;;;;;5.23;53.85;102246.63;5031013;28;20053;-84
2023/03/02 11:18:27;;;;;;;23.98;12.00;;;;;;;5.19;53.03;102255.97;5022706;28;20088;-83